createdAt,value
2018-07-25T00:00:36.058Z,5.60
2018-07-25T00:01:36.103Z,6.30
2018-07-25T00:02:35.465Z,5.70
2018-07-25T00:03:34.680Z,6.10
2018-07-25T00:04:34.758Z,5.40
2018-07-25T00:05:35.470Z,5.60
2018-07-25T00:06:34.688Z,5.90
2018-07-25T00:07:35.493Z,5.80
2018-07-25T00:08:35.466Z,6.50
2018-07-25T00:09:35.630Z,6.30
2018-07-25T00:10:36.276Z,5.80
2018-07-25T00:11:34.715Z,5.70
2018-07-25T00:12:35.541Z,6.10
2018-07-25T00:13:38.281Z,6.10
2018-07-25T00:14:34.705Z,6.20
2018-07-25T00:15:34.754Z,6.30
2018-07-25T00:16:35.561Z,6.10
2018-07-25T00:17:35.866Z,6.60
2018-07-25T00:18:35.498Z,6.40
2018-07-25T00:19:36.040Z,6.70
2018-07-25T00:20:35.948Z,6.40
2018-07-25T00:21:36.091Z,6.50
2018-07-25T00:22:35.467Z,6.20
2018-07-25T00:23:36.341Z,6.10
2018-07-25T00:24:35.552Z,6.40
2018-07-25T00:25:34.798Z,6.60
2018-07-25T00:26:35.569Z,6.40
2018-07-25T00:27:34.794Z,6.40
2018-07-25T00:28:35.435Z,5.80
2018-07-25T00:29:34.803Z,6.80
2018-07-25T00:30:35.492Z,6.80
2018-07-25T00:31:34.796Z,6.30
2018-07-25T00:32:34.744Z,6.50
2018-07-25T00:33:36.522Z,6.40
2018-07-25T00:34:34.819Z,6.70
2018-07-25T00:35:35.948Z,6.70
2018-07-25T00:36:36.551Z,6.40
2018-07-25T00:37:36.448Z,6.60
2018-07-25T00:38:35.561Z,6.40
2018-07-25T00:39:34.836Z,6.40
2018-07-25T00:40:34.777Z,6.90
2018-07-25T00:41:34.777Z,6.80
2018-07-25T00:42:35.687Z,6.70
2018-07-25T00:43:38.196Z,6.60
2018-07-25T00:44:36.013Z,7.50
2018-07-25T00:45:36.594Z,7.30
2018-07-25T00:46:35.579Z,7.00
2018-07-25T00:47:34.855Z,6.90
2018-07-25T00:48:34.926Z,6.90
2018-07-25T00:49:36.731Z,6.70
2018-07-25T00:50:34.860Z,7.00
2018-07-25T00:51:34.822Z,6.60
2018-07-25T00:52:35.566Z,6.70
2018-07-25T00:53:35.910Z,6.90
2018-07-25T00:54:35.567Z,7.20
2018-07-25T00:55:37.464Z,6.60
2018-07-25T00:56:35.999Z,7.30
2018-07-25T00:57:35.964Z,7.00
2018-07-25T00:58:36.025Z,7.00
2018-07-25T00:59:35.961Z,6.90
2018-07-25T01:00:35.614Z,6.90
2018-07-25T01:01:36.006Z,7.40
2018-07-25T01:02:36.104Z,7.00
2018-07-25T01:03:35.615Z,6.70
2018-07-25T01:04:35.977Z,7.10
2018-07-25T01:05:35.647Z,6.70
2018-07-25T01:06:35.906Z,6.70
2018-07-25T01:07:36.019Z,6.60
2018-07-25T01:08:35.795Z,6.80
2018-07-25T01:09:36.017Z,7.00
2018-07-25T01:10:36.010Z,6.90
2018-07-25T01:11:36.054Z,7.40
2018-07-25T01:12:36.046Z,6.90
2018-07-25T01:13:36.025Z,7.30
2018-07-25T01:14:37.887Z,7.40
2018-07-25T01:15:36.167Z,7.00
2018-07-25T01:16:35.678Z,7.10
2018-07-25T01:17:35.968Z,7.00
2018-07-25T01:18:36.116Z,7.10
2018-07-25T01:19:36.102Z,7.20
2018-07-25T01:20:36.095Z,6.90
2018-07-25T01:21:36.140Z,7.10
2018-07-25T01:22:36.510Z,7.40
2018-07-25T01:23:36.488Z,7.40
2018-07-25T01:24:35.799Z,6.80
2018-07-25T01:25:36.003Z,6.70
2018-07-25T01:26:36.524Z,7.00
2018-07-25T01:27:37.524Z,7.30
2018-07-25T01:28:36.048Z,6.90
2018-07-25T01:29:36.094Z,7.20
2018-07-25T01:30:36.025Z,7.00
2018-07-25T01:31:36.024Z,7.70
2018-07-25T01:32:36.041Z,7.20
2018-07-25T01:33:36.042Z,7.40
2018-07-25T01:34:34.992Z,7.60
2018-07-25T01:35:36.092Z,7.10
2018-07-25T01:36:36.049Z,7.40
2018-07-25T01:37:36.064Z,7.10
2018-07-25T01:38:34.970Z,6.90
2018-07-25T01:39:36.179Z,6.80
2018-07-25T01:40:36.096Z,7.10
2018-07-25T01:41:36.037Z,7.30
2018-07-25T01:42:36.186Z,7.00
2018-07-25T01:43:36.105Z,7.20
2018-07-25T01:44:35.039Z,6.80
2018-07-25T01:45:36.147Z,7.00
2018-07-25T01:46:36.209Z,7.00
2018-07-25T01:47:36.191Z,6.90
2018-07-25T01:48:36.145Z,7.00
2018-07-25T01:49:35.772Z,6.70
2018-07-25T01:50:36.132Z,6.90
2018-07-25T01:51:36.164Z,7.00
2018-07-25T01:52:36.136Z,6.40
2018-07-25T01:53:36.596Z,7.40
2018-07-25T01:54:36.091Z,6.70
2018-07-25T01:55:36.063Z,6.80
2018-07-25T01:56:35.742Z,6.90
2018-07-25T01:57:36.148Z,7.00
2018-07-25T01:58:36.569Z,6.80
2018-07-25T01:59:36.055Z,6.60
2018-07-25T02:00:35.773Z,7.00
2018-07-25T02:01:36.173Z,6.70
2018-07-25T02:02:36.046Z,7.50
2018-07-25T02:03:35.151Z,6.70
2018-07-25T02:04:36.178Z,6.70
2018-07-25T02:05:36.093Z,6.70
2018-07-25T02:06:35.800Z,6.80
2018-07-25T02:07:35.100Z,7.00
2018-07-25T02:08:36.565Z,6.70
2018-07-25T02:09:35.801Z,7.00
2018-07-25T02:10:36.177Z,6.60
2018-07-25T02:11:35.823Z,6.30
2018-07-25T02:12:36.255Z,6.60
2018-07-25T02:13:36.309Z,6.30
2018-07-25T02:14:36.203Z,7.00
2018-07-25T02:15:36.287Z,6.50
2018-07-25T02:16:36.288Z,6.80
2018-07-25T02:17:35.867Z,6.70
2018-07-25T02:18:35.881Z,6.60
2018-07-25T02:19:36.373Z,7.00
2018-07-25T02:20:36.295Z,6.70
2018-07-25T02:21:35.888Z,6.30
2018-07-25T02:22:35.883Z,6.80
2018-07-25T02:23:36.303Z,6.70
2018-07-25T02:24:36.254Z,6.50
2018-07-25T02:25:38.336Z,6.60
2018-07-25T02:26:36.126Z,6.70
2018-07-25T02:27:35.107Z,6.60
2018-07-25T02:28:36.239Z,6.50
2018-07-25T02:29:36.476Z,6.70
2018-07-25T02:30:36.200Z,6.80
2018-07-25T02:31:36.199Z,7.50
2018-07-25T02:32:36.553Z,6.70
2018-07-25T02:33:35.891Z,6.10
2018-07-25T02:34:36.280Z,6.60
2018-07-25T02:35:36.545Z,6.90
2018-07-25T02:36:36.197Z,6.50
2018-07-25T02:37:36.611Z,6.70
2018-07-25T02:38:36.251Z,6.40
2018-07-25T02:39:36.236Z,6.50
2018-07-25T02:40:36.298Z,6.60
2018-07-25T02:41:36.296Z,6.50
2018-07-25T02:42:35.221Z,6.90
2018-07-25T02:43:36.691Z,6.70
2018-07-25T02:44:35.875Z,7.40
2018-07-25T02:45:35.980Z,6.60
2018-07-25T02:46:36.304Z,6.60
2018-07-25T02:47:35.938Z,6.70
2018-07-25T02:48:36.211Z,6.40
2018-07-25T02:49:35.210Z,6.80
2018-07-25T02:50:35.949Z,7.50
2018-07-25T02:51:35.935Z,6.40
2018-07-25T02:52:35.945Z,6.90
2018-07-25T02:53:36.759Z,6.50
2018-07-25T02:54:35.166Z,6.30
2018-07-25T02:55:35.990Z,6.80
2018-07-25T02:56:36.599Z,6.80
2018-07-25T02:57:36.254Z,7.40
2018-07-25T02:58:38.157Z,7.10
2018-07-25T02:59:36.324Z,6.70
2018-07-25T03:00:36.269Z,6.50
2018-07-25T03:01:36.306Z,6.60
2018-07-25T03:02:36.355Z,6.60
2018-07-25T03:03:36.344Z,6.20
2018-07-25T03:04:35.213Z,6.30
2018-07-25T03:05:35.906Z,7.10
2018-07-25T03:06:35.954Z,6.90
2018-07-25T03:07:36.350Z,7.10
2018-07-25T03:08:36.276Z,7.00
2018-07-25T03:09:36.002Z,7.10
2018-07-25T03:10:36.301Z,6.50
2018-07-25T03:11:36.318Z,6.80
2018-07-25T03:12:36.199Z,7.00
2018-07-25T03:13:36.698Z,7.10
2018-07-25T03:14:35.295Z,7.00
2018-07-25T03:15:36.381Z,7.10
2018-07-25T03:16:36.883Z,7.20
2018-07-25T03:17:35.982Z,7.30
2018-07-25T03:18:36.429Z,6.60
2018-07-25T03:19:36.423Z,7.00
2018-07-25T03:20:36.489Z,7.20
2018-07-25T03:21:35.302Z,6.90
2018-07-25T03:22:35.247Z,7.10
2018-07-25T03:23:36.438Z,7.10
2018-07-25T03:24:36.000Z,7.10
2018-07-25T03:25:36.029Z,7.20
2018-07-25T03:26:36.388Z,6.90
2018-07-25T03:27:35.245Z,7.30
2018-07-25T03:28:36.005Z,7.00
2018-07-25T03:29:36.007Z,7.50
2018-07-25T03:30:36.170Z,7.10
2018-07-25T03:31:36.495Z,7.70
2018-07-25T03:32:36.308Z,7.60
2018-07-25T03:33:36.013Z,7.30
2018-07-25T03:34:36.342Z,7.70
2018-07-25T03:35:36.822Z,7.40
2018-07-25T03:36:36.005Z,7.20
2018-07-25T03:37:36.738Z,7.40
2018-07-25T03:38:42.589Z,7.50
2018-07-25T03:39:36.081Z,7.60
2018-07-25T03:40:36.322Z,7.80
2018-07-25T03:41:36.823Z,7.30
2018-07-25T03:42:35.978Z,7.70
2018-07-25T03:43:36.755Z,7.30
2018-07-25T03:44:36.715Z,7.50
2018-07-25T03:45:36.355Z,8.10
2018-07-25T03:46:36.844Z,6.90
2018-07-25T03:47:36.448Z,7.70
2018-07-25T03:48:36.397Z,7.00
2018-07-25T03:49:36.527Z,7.40
2018-07-25T03:50:39.060Z,7.10
2018-07-25T03:51:35.306Z,7.30
2018-07-25T03:52:38.636Z,7.20
2018-07-25T03:53:36.805Z,6.90
2018-07-25T03:54:36.549Z,8.20
2018-07-25T03:55:36.190Z,6.90
2018-07-25T03:56:37.027Z,7.60
2018-07-25T03:57:36.558Z,7.50
2018-07-25T03:58:36.194Z,7.50
2018-07-25T03:59:36.614Z,7.50
2018-07-25T04:00:35.363Z,7.50
2018-07-25T04:01:35.351Z,7.20
2018-07-25T04:02:36.914Z,8.00
2018-07-25T04:03:36.832Z,7.40
2018-07-25T04:04:36.088Z,7.70
2018-07-25T04:06:36.780Z,8.40
2018-07-25T04:07:36.185Z,7.40
2018-07-25T04:08:36.163Z,7.80
2018-07-25T04:09:36.803Z,7.70
2018-07-25T04:10:36.087Z,7.00
2018-07-25T04:11:36.786Z,8.00
2018-07-25T04:12:36.510Z,8.00
2018-07-25T04:13:36.530Z,7.60
2018-07-25T04:14:36.787Z,7.90
2018-07-25T04:15:36.072Z,7.30
2018-07-25T04:16:35.374Z,7.50
2018-07-25T04:17:36.118Z,7.90
2018-07-25T04:18:36.750Z,7.90
2018-07-25T04:19:36.228Z,7.50
2018-07-25T04:20:37.231Z,7.60
2018-07-25T04:21:37.580Z,7.70
2018-07-25T04:22:37.072Z,8.60
2018-07-25T04:23:36.746Z,8.20
2018-07-25T04:24:43.354Z,7.90
2018-07-25T04:25:37.151Z,8.30
2018-07-25T04:26:37.250Z,8.30
2018-07-25T04:27:37.170Z,8.50
2018-07-25T04:28:37.570Z,7.90
2018-07-25T04:29:37.295Z,8.00
2018-07-25T04:30:37.208Z,8.10
2018-07-25T04:31:37.302Z,7.90
2018-07-25T04:32:37.346Z,8.50
2018-07-25T04:33:37.768Z,7.80
2018-07-25T04:34:37.055Z,8.30
2018-07-25T04:35:37.346Z,8.40
2018-07-25T04:36:37.606Z,8.40
2018-07-25T04:37:37.238Z,8.50
2018-07-25T04:38:37.746Z,8.30
2018-07-25T04:39:39.618Z,8.50
2018-07-25T04:40:37.135Z,8.30
2018-07-25T04:41:37.588Z,8.40
2018-07-25T04:42:37.328Z,8.60
2018-07-25T04:43:37.128Z,8.30
2018-07-25T04:44:37.243Z,8.70
2018-07-25T04:45:37.602Z,8.40
2018-07-25T04:46:39.308Z,8.10
2018-07-25T04:47:37.614Z,8.90
2018-07-25T04:48:37.129Z,8.50
2018-07-25T04:49:37.297Z,8.20
2018-07-25T04:50:36.812Z,8.20
2018-07-25T04:51:37.169Z,8.30
2018-07-25T04:52:37.611Z,8.60
2018-07-25T04:53:37.163Z,8.90
2018-07-25T04:54:37.178Z,8.10
2018-07-25T04:55:37.177Z,8.00
2018-07-25T04:56:37.615Z,8.10
2018-07-25T04:57:37.785Z,8.90
2018-07-25T04:58:37.150Z,8.60
2018-07-25T04:59:37.521Z,8.60
2018-07-25T05:00:37.633Z,8.70
2018-07-25T05:01:37.105Z,8.00
2018-07-25T05:02:37.097Z,8.10
2018-07-25T05:03:37.144Z,7.90
2018-07-25T05:04:37.058Z,8.70
2018-07-25T05:05:37.283Z,8.60
2018-07-25T05:06:39.359Z,8.20
2018-07-25T05:07:37.611Z,8.20
2018-07-25T05:08:37.122Z,8.90
2018-07-25T05:09:37.175Z,9.20
2018-07-25T05:10:37.153Z,8.70
2018-07-25T05:11:37.617Z,8.90
2018-07-25T05:12:37.272Z,9.60
2018-07-25T05:13:35.480Z,10.00
2018-07-25T05:14:43.156Z,9.10
2018-07-25T05:15:35.465Z,9.50
2018-07-25T05:16:51.144Z,9.80
2018-07-25T05:17:37.161Z,8.90
2018-07-25T05:18:35.491Z,9.20
2018-07-25T05:19:35.508Z,10.00
2018-07-25T05:20:37.102Z,9.10
2018-07-25T05:21:37.630Z,9.70
2018-07-25T05:22:37.652Z,9.20
2018-07-25T05:23:37.779Z,9.50
2018-07-25T05:24:37.634Z,10.00
2018-07-25T05:25:37.630Z,9.00
2018-07-25T05:26:37.190Z,9.70
2018-07-25T05:27:43.371Z,9.50
2018-07-25T05:28:51.344Z,9.70
2018-07-25T05:29:37.632Z,10.00
2018-07-25T05:30:37.370Z,10.00
2018-07-25T05:31:37.163Z,9.90
2018-07-25T05:32:35.545Z,9.90
2018-07-25T05:33:38.607Z,9.70
2018-07-25T05:34:35.614Z,9.90
2018-07-25T05:35:35.549Z,11.10
2018-07-25T05:36:35.528Z,10.40
2018-07-25T05:37:35.530Z,10.00
2018-07-25T05:38:35.530Z,9.50
2018-07-25T05:39:36.605Z,10.00
2018-07-25T05:40:36.701Z,10.10
2018-07-25T05:41:36.848Z,10.30
2018-07-25T05:42:35.551Z,10.00
2018-07-25T05:43:35.629Z,9.70
2018-07-25T05:44:37.610Z,10.30
2018-07-25T05:45:36.730Z,9.80
2018-07-25T05:46:35.617Z,10.10
2018-07-25T05:48:36.604Z,10.10
2018-07-25T05:49:35.572Z,10.20
2018-07-25T05:50:35.562Z,9.60
2018-07-25T05:51:36.501Z,9.90
2018-07-25T05:52:35.583Z,10.00
2018-07-25T05:53:37.579Z,10.20
2018-07-25T05:54:35.629Z,10.70
2018-07-25T05:55:36.423Z,10.40
2018-07-25T05:56:36.824Z,10.20
2018-07-25T05:57:37.109Z,10.30
2018-07-25T05:58:36.769Z,10.40
2018-07-25T05:59:39.649Z,9.70
2018-07-25T06:00:35.588Z,10.60
2018-07-25T06:01:36.811Z,10.60
2018-07-25T06:02:36.897Z,10.50
2018-07-25T06:03:36.771Z,10.40
2018-07-25T06:04:35.878Z,11.10
2018-07-25T06:05:37.181Z,10.70
2018-07-25T06:06:36.868Z,11.10
2018-07-25T06:07:36.744Z,11.10
2018-07-25T06:08:37.672Z,10.50
2018-07-25T06:09:35.609Z,10.80
2018-07-25T06:10:37.058Z,11.20
2018-07-25T06:11:36.816Z,11.10
2018-07-25T06:12:35.645Z,11.20
2018-07-25T06:13:37.647Z,10.60
2018-07-25T06:14:35.648Z,11.10
2018-07-25T06:15:35.618Z,10.90
2018-07-25T06:16:35.617Z,11.20
2018-07-25T06:17:36.748Z,11.10
2018-07-25T06:18:35.630Z,11.00
2018-07-25T06:19:35.652Z,11.20
2018-07-25T06:20:37.010Z,11.30
2018-07-25T06:21:37.177Z,10.60
2018-07-25T06:22:37.026Z,11.30
2018-07-25T06:23:35.736Z,10.40
2018-07-25T06:24:35.644Z,9.70
2018-07-25T06:25:36.829Z,10.50
2018-07-25T06:26:36.775Z,10.80
2018-07-25T06:27:35.650Z,10.40
2018-07-25T06:28:36.832Z,11.10
2018-07-25T06:29:36.772Z,10.70
2018-07-25T06:30:39.085Z,10.60
2018-07-25T06:31:37.206Z,11.00
2018-07-25T06:32:36.492Z,11.00
2018-07-25T06:33:36.792Z,11.40
2018-07-25T06:34:43.230Z,10.30
2018-07-25T06:35:37.193Z,10.90
2018-07-25T06:36:39.039Z,10.40
2018-07-25T06:37:37.122Z,11.00
2018-07-25T06:38:36.889Z,11.00
2018-07-25T06:39:37.329Z,10.70
2018-07-25T06:40:36.721Z,10.70
2018-07-25T06:41:36.417Z,10.60
2018-07-25T06:42:37.189Z,11.50
2018-07-25T06:43:36.409Z,11.30
2018-07-25T06:44:35.687Z,11.00
2018-07-25T06:45:37.277Z,10.30
2018-07-25T06:46:37.667Z,11.00
2018-07-25T06:47:37.089Z,11.30
2018-07-25T06:48:36.563Z,11.00
2018-07-25T06:49:36.855Z,11.50
2018-07-25T06:50:37.671Z,10.90
2018-07-25T06:51:51.182Z,11.80
2018-07-25T06:52:36.920Z,11.50
2018-07-25T06:53:37.492Z,11.20
2018-07-25T06:54:37.626Z,11.10
2018-07-25T06:55:39.227Z,11.30
2018-07-25T06:56:37.331Z,10.40
2018-07-25T06:57:37.602Z,10.60
2018-07-25T06:58:36.478Z,11.40
2018-07-25T06:59:43.165Z,10.40
2018-07-25T07:00:37.197Z,10.70
2018-07-25T07:01:36.869Z,10.40
2018-07-25T07:02:37.190Z,10.50
2018-07-25T07:03:43.169Z,10.70
2018-07-25T07:04:36.917Z,10.60
2018-07-25T07:05:37.464Z,10.20
2018-07-25T07:06:39.034Z,10.10
2018-07-25T07:07:37.653Z,10.40
2018-07-25T07:08:37.320Z,10.20
2018-07-25T07:09:37.305Z,11.40
2018-07-25T07:10:37.110Z,11.60
2018-07-25T07:11:37.199Z,10.90
2018-07-25T07:12:37.934Z,11.00
2018-07-25T07:13:37.163Z,10.30
2018-07-25T07:14:37.428Z,11.00
2018-07-25T07:15:37.689Z,11.10
2018-07-25T07:16:37.317Z,10.80
2018-07-25T07:17:37.322Z,10.70
2018-07-25T07:18:37.682Z,11.20
2018-07-25T07:19:37.648Z,10.30
2018-07-25T07:20:37.263Z,10.20
2018-07-25T07:21:37.303Z,10.80
2018-07-25T07:22:37.329Z,9.80
2018-07-25T07:23:37.309Z,10.50
2018-07-25T07:24:37.314Z,11.00
2018-07-25T07:25:37.208Z,10.80
2018-07-25T07:26:37.216Z,11.00
2018-07-25T07:27:38.044Z,10.50
2018-07-25T07:28:37.557Z,10.30
2018-07-25T07:29:37.871Z,10.00
2018-07-25T07:30:37.997Z,10.60
2018-07-25T07:31:38.216Z,10.00
2018-07-25T07:32:51.688Z,9.30
2018-07-25T07:33:57.862Z,10.00
2018-07-25T07:34:37.336Z,9.80
2018-07-25T07:35:37.206Z,9.80
2018-07-25T07:36:37.194Z,9.90
2018-07-25T07:37:37.278Z,10.10
2018-07-25T07:38:37.875Z,9.60
2018-07-25T07:39:38.007Z,8.80
2018-07-25T07:40:37.493Z,9.40
2018-07-25T07:41:38.058Z,9.30
2018-07-25T07:42:37.882Z,9.00
2018-07-25T07:43:39.185Z,8.50
2018-07-25T07:44:37.626Z,9.10
2018-07-25T07:45:39.241Z,9.60
2018-07-25T07:46:37.714Z,9.70
2018-07-25T07:47:37.256Z,10.20
2018-07-25T07:48:37.169Z,10.10
2018-07-25T07:49:37.849Z,10.00
2018-07-25T07:50:37.866Z,9.90
2018-07-25T07:51:38.328Z,9.10
2018-07-25T07:52:37.372Z,8.90
2018-07-25T07:53:38.164Z,9.10
2018-07-25T07:54:37.254Z,9.20
2018-07-25T07:55:37.748Z,8.40
2018-07-25T07:56:38.244Z,9.20
2018-07-25T07:57:37.879Z,8.90
2018-07-25T07:58:37.520Z,9.20
2018-07-25T07:59:43.194Z,9.40
2018-07-25T08:00:43.178Z,8.80
2018-07-25T08:01:39.192Z,7.80
2018-07-25T08:02:37.534Z,8.80
2018-07-25T08:03:37.601Z,10.30
2018-07-25T08:04:37.529Z,9.50
2018-07-25T08:05:43.145Z,8.20
2018-07-25T08:06:43.104Z,8.70
2018-07-25T08:07:37.292Z,8.90
2018-07-25T08:08:37.291Z,8.60
2018-07-25T08:09:37.428Z,8.40
2018-07-25T08:10:37.459Z,7.90
2018-07-25T08:11:39.701Z,7.90
2018-07-25T08:12:37.241Z,8.10
2018-07-25T08:13:37.463Z,7.60
2018-07-25T08:14:39.693Z,7.20
2018-07-25T08:15:37.717Z,7.40
2018-07-25T08:16:37.976Z,8.80
2018-07-25T08:17:38.568Z,9.00
2018-07-25T08:18:37.849Z,8.70
2018-07-25T08:19:44.363Z,7.70
2018-07-25T08:20:43.779Z,8.00
2018-07-25T08:21:37.716Z,7.60
2018-07-25T08:22:37.781Z,7.80
2018-07-25T08:23:37.627Z,7.80
2018-07-25T08:24:38.198Z,7.40
2018-07-25T08:25:37.959Z,7.90
2018-07-25T08:26:37.718Z,8.20
2018-07-25T08:27:37.703Z,8.30
2018-07-25T08:28:37.738Z,8.60
2018-07-25T08:29:37.938Z,8.00
2018-07-25T08:30:37.678Z,7.60
2018-07-25T08:31:44.356Z,7.80
2018-07-25T08:32:37.795Z,8.00
2018-07-25T08:33:37.713Z,8.30
2018-07-25T08:34:37.797Z,7.80
2018-07-25T08:35:38.387Z,8.10
2018-07-25T08:36:37.746Z,7.70
2018-07-25T08:37:37.707Z,8.20
2018-07-25T08:38:38.274Z,7.80
2018-07-25T08:39:37.781Z,8.40
2018-07-25T08:40:37.757Z,8.30
2018-07-25T08:41:38.359Z,8.60
2018-07-25T08:42:37.900Z,8.60
2018-07-25T08:43:38.057Z,8.80
2018-07-25T08:44:37.426Z,7.90
2018-07-25T08:45:38.181Z,7.80
2018-07-25T08:46:43.773Z,8.10
2018-07-25T08:47:39.258Z,7.70
2018-07-25T08:48:43.692Z,7.50
2018-07-25T08:49:38.204Z,7.60
2018-07-25T08:50:37.652Z,8.30
2018-07-25T08:51:38.313Z,7.80
2018-07-25T08:52:37.270Z,8.10
2018-07-25T08:53:44.042Z,7.50
2018-07-25T08:54:38.207Z,7.60
2018-07-25T08:55:38.367Z,7.40
2018-07-25T08:56:38.366Z,7.30
2018-07-25T08:57:38.040Z,7.10
2018-07-25T08:58:37.738Z,6.90
2018-07-25T08:59:38.252Z,7.10
2018-07-25T09:00:38.028Z,6.40
2018-07-25T09:01:37.826Z,6.30
2018-07-25T09:02:44.222Z,6.90
2018-07-25T09:03:43.912Z,6.40
2018-07-25T09:04:37.737Z,7.40
2018-07-25T09:05:38.194Z,6.50
2018-07-25T09:06:37.649Z,6.90
2018-07-25T09:07:37.945Z,8.40
2018-07-25T09:08:37.915Z,6.60
2018-07-25T09:09:37.811Z,6.80
2018-07-25T09:10:43.781Z,6.50
2018-07-25T09:11:43.742Z,5.90
2018-07-25T09:12:38.211Z,6.50
2018-07-25T09:13:37.723Z,5.90
2018-07-25T09:14:37.746Z,6.40
2018-07-25T09:15:38.208Z,6.50
2018-07-25T09:16:38.216Z,5.70
2018-07-25T09:17:37.640Z,6.20
2018-07-25T09:18:37.924Z,5.70
2018-07-25T09:19:38.117Z,5.40
2018-07-25T09:20:39.495Z,5.80
2018-07-25T09:21:38.150Z,5.90
2018-07-25T09:22:38.234Z,5.50
2018-07-25T09:23:38.316Z,5.30
2018-07-25T09:24:38.374Z,5.20
2018-07-25T09:25:40.263Z,5.60
2018-07-25T09:26:37.661Z,5.40
2018-07-25T09:27:37.801Z,5.60
2018-07-25T09:28:38.221Z,6.10
2018-07-25T09:29:38.256Z,5.80
2018-07-25T09:30:37.852Z,5.90
2018-07-25T09:31:37.838Z,5.40
2018-07-25T09:32:38.172Z,4.80
2018-07-25T09:33:37.817Z,5.70
2018-07-25T09:36:11.196Z,5.80
2018-07-25T09:37:11.817Z,5.50
2018-07-25T09:39:05.362Z,5.60
2018-07-25T09:40:07.375Z,5.30
2018-07-25T09:42:00.061Z,6.00
2018-07-25T09:42:59.584Z,6.30
2018-07-25T09:43:59.611Z,5.90
2018-07-25T09:44:59.266Z,5.60
2018-07-25T09:46:13.635Z,5.70
2018-07-25T09:46:59.014Z,5.30
2018-07-25T09:47:59.593Z,5.50
2018-07-25T09:49:01.009Z,5.30
2018-07-25T09:49:59.429Z,5.50
2018-07-25T09:51:00.028Z,5.30
2018-07-25T09:51:59.704Z,5.20
2018-07-25T09:53:05.973Z,5.20
2018-07-25T09:53:58.278Z,5.50
2018-07-25T09:54:59.175Z,6.00
2018-07-25T09:56:21.488Z,5.70
2018-07-25T09:56:58.857Z,5.50
2018-07-25T09:59:32.949Z,5.20
2018-07-25T10:00:34.615Z,5.50
2018-07-25T10:02:27.797Z,5.40
2018-07-25T10:03:27.892Z,5.20
2018-07-25T10:05:22.865Z,5.30
2018-07-25T10:06:22.479Z,5.30
2018-07-25T10:07:22.346Z,6.50
2018-07-25T10:08:36.893Z,5.50
2018-07-25T10:09:28.364Z,5.60
2018-07-25T10:11:55.774Z,5.80
2018-07-25T10:12:55.793Z,5.60
2018-07-25T10:14:50.093Z,5.60
2018-07-25T10:15:52.524Z,5.60
2018-07-25T10:16:50.790Z,5.90
2018-07-25T10:17:56.510Z,5.70
2018-07-25T10:18:56.038Z,5.70
2018-07-25T10:19:52.226Z,5.40
2018-07-25T10:20:50.725Z,6.10
2018-07-25T10:21:50.147Z,6.10
2018-07-25T10:22:50.376Z,6.30
2018-07-25T10:23:50.184Z,5.80
2018-07-25T10:25:06.979Z,5.80
2018-07-25T10:27:24.100Z,5.70
2018-07-25T10:28:23.710Z,5.80
2018-07-25T10:30:17.353Z,6.00
2018-07-25T10:31:18.315Z,5.50
2018-07-25T10:33:12.340Z,5.70
2018-07-25T10:34:12.360Z,6.10
2018-07-25T10:36:22.966Z,6.00
2018-07-25T10:40:00.057Z,6.00
2018-07-25T10:41:00.070Z,6.10
2018-07-25T10:42:54.538Z,5.80
2018-07-25T10:45:09.428Z,5.90
2018-07-25T10:46:09.522Z,5.70
2018-07-25T10:48:08.535Z,5.70
2018-07-25T10:49:02.108Z,5.80
2018-07-25T10:50:58.965Z,5.80
2018-07-25T10:51:58.595Z,6.20
2018-07-25T10:53:56.194Z,6.50
2018-07-25T10:54:59.718Z,6.40
2018-07-25T10:56:07.477Z,6.10
2018-07-25T10:56:53.075Z,6.00
2018-07-25T10:57:53.500Z,5.90
2018-07-25T10:58:53.486Z,6.00
2018-07-25T10:59:53.074Z,6.20
2018-07-25T11:00:53.065Z,6.10
2018-07-25T11:01:53.538Z,5.90
2018-07-25T11:02:53.666Z,6.00
2018-07-25T11:04:13.637Z,5.80
2018-07-25T11:04:53.142Z,5.60
2018-07-25T11:05:53.969Z,6.40
2018-07-25T11:06:53.513Z,6.20
2018-07-25T11:07:53.083Z,6.10
2018-07-25T11:08:53.153Z,5.70
2018-07-25T11:09:59.307Z,5.80
2018-07-25T11:14:01.894Z,6.20
2018-07-25T11:15:02.319Z,6.30
2018-07-25T11:16:02.686Z,5.60
2018-07-25T11:17:03.399Z,6.20
2018-07-25T11:19:08.334Z,5.70
2018-07-25T11:20:02.120Z,5.70
2018-07-25T11:21:08.548Z,5.60
2018-07-25T11:22:03.755Z,5.10
2018-07-25T11:24:36.606Z,6.00
2018-07-25T11:25:36.094Z,5.70
2018-07-25T11:27:28.764Z,5.50
2018-07-25T11:29:05.221Z,5.30
2018-07-25T11:29:30.345Z,5.60
2018-07-25T11:30:29.236Z,5.80
2018-07-25T11:31:29.473Z,5.50
2018-07-25T11:32:29.724Z,5.70
2018-07-25T11:33:33.076Z,5.90
2018-07-25T11:34:32.064Z,5.50
2018-07-25T11:35:29.326Z,5.50
2018-07-25T11:36:29.674Z,5.90
2018-07-25T11:37:29.264Z,5.90
2018-07-25T11:38:29.697Z,5.90
2018-07-25T11:39:35.658Z,6.20
2018-07-25T11:40:31.598Z,5.30
2018-07-25T11:41:29.758Z,5.60
2018-07-25T11:42:29.759Z,5.70
2018-07-25T11:43:30.261Z,5.80
2018-07-25T11:44:29.757Z,5.50
2018-07-25T11:46:46.997Z,5.40
2018-07-25T11:47:29.297Z,5.10
2018-07-25T11:48:34.729Z,5.40
2018-07-25T11:49:29.741Z,5.30
2018-07-25T11:50:29.929Z,5.50
2018-07-25T11:51:29.996Z,5.10
2018-07-25T11:52:30.454Z,5.10
2018-07-25T11:53:29.729Z,5.40
2018-07-25T11:54:32.065Z,5.30
2018-07-25T11:55:29.506Z,5.40
2018-07-25T11:56:29.725Z,5.00
2018-07-25T11:57:29.811Z,5.10
2018-07-25T11:58:29.585Z,5.50
2018-07-25T11:59:29.768Z,5.20
2018-07-25T12:00:29.602Z,5.30
2018-07-25T12:01:29.503Z,5.40
2018-07-25T12:02:31.212Z,5.10
2018-07-25T12:03:35.612Z,5.70
2018-07-25T12:04:29.770Z,5.20
2018-07-25T12:05:29.462Z,5.40
2018-07-25T12:08:03.214Z,5.00
2018-07-25T12:09:03.342Z,5.00
2018-07-25T12:10:58.940Z,5.00
2018-07-25T12:12:19.158Z,5.00
2018-07-25T12:12:57.082Z,5.10
2018-07-25T12:13:58.098Z,4.60
2018-07-25T12:14:57.993Z,4.70
2018-07-25T12:16:33.619Z,4.70
2018-07-25T12:16:56.979Z,4.80
2018-07-25T12:17:57.802Z,4.50
2018-07-25T12:18:58.085Z,4.50
2018-07-25T12:19:57.190Z,4.60
2018-07-25T12:21:03.952Z,4.80
2018-07-25T12:22:11.957Z,4.50
2018-07-25T12:22:57.281Z,4.70
2018-07-25T12:23:58.383Z,4.80
2018-07-25T12:24:58.898Z,4.80
2018-07-25T12:25:58.283Z,4.40
2018-07-25T12:27:11.579Z,4.30
2018-07-25T12:27:57.936Z,4.80
2018-07-25T12:29:00.700Z,4.30
2018-07-25T12:29:58.197Z,4.80
2018-07-25T12:30:57.223Z,4.90
2018-07-25T12:31:57.640Z,4.70
2018-07-25T12:32:57.488Z,4.90
2018-07-25T12:33:57.869Z,4.50
2018-07-25T12:34:57.471Z,4.50
2018-07-25T12:35:56.234Z,4.70
2018-07-25T12:36:58.365Z,4.60
2018-07-25T12:37:57.226Z,4.50
2018-07-25T12:38:57.656Z,4.60
2018-07-25T12:39:57.651Z,4.40
2018-07-25T12:40:57.268Z,4.00
2018-07-25T12:41:58.122Z,4.00
2018-07-25T12:42:57.636Z,4.20
2018-07-25T12:47:10.313Z,4.10
2018-07-25T12:48:06.904Z,4.30
2018-07-25T12:49:06.635Z,4.10
2018-07-25T12:51:08.489Z,4.30
2018-07-25T12:52:06.638Z,4.20
2018-07-25T12:53:06.270Z,4.00
2018-07-25T12:54:07.353Z,3.80
2018-07-25T12:55:06.622Z,3.90
2018-07-25T12:56:08.020Z,4.10
2018-07-25T12:57:06.285Z,3.70
2018-07-25T12:58:06.821Z,4.10
2018-07-25T12:59:06.613Z,3.60
2018-07-25T13:00:06.501Z,3.90
2018-07-25T13:01:06.732Z,4.00
2018-07-25T13:02:06.303Z,3.80
2018-07-25T13:03:06.518Z,3.90
2018-07-25T13:04:12.188Z,3.50
2018-07-25T13:05:12.241Z,3.40
2018-07-25T13:06:06.938Z,3.50
2018-07-25T13:07:08.970Z,3.80
2018-07-25T13:08:08.754Z,3.20
2018-07-25T13:09:13.164Z,3.30
2018-07-25T13:10:11.907Z,3.70
2018-07-25T13:11:08.937Z,3.70
2018-07-25T13:12:41.775Z,3.40
2018-07-25T13:13:13.158Z,3.40
2018-07-25T13:14:06.791Z,3.80
2018-07-25T13:15:06.630Z,3.40
2018-07-25T13:16:21.231Z,3.50
2018-07-25T13:17:06.721Z,3.30
2018-07-25T13:18:06.588Z,3.60
2018-07-25T13:19:07.383Z,3.30
2018-07-25T13:20:06.786Z,3.20
2018-07-25T13:21:13.268Z,3.40
2018-07-25T13:22:07.143Z,3.00
2018-07-25T13:23:06.356Z,3.10
2018-07-25T13:24:07.160Z,3.00
2018-07-25T13:25:06.781Z,3.10
2018-07-25T13:26:09.025Z,3.40
2018-07-25T13:27:05.273Z,3.30
2018-07-25T13:28:13.070Z,3.30
2018-07-25T13:29:06.779Z,3.20
2018-07-25T13:30:15.279Z,3.40
2018-07-25T13:31:06.857Z,3.90
2018-07-25T13:32:13.120Z,3.70
2018-07-25T13:33:07.216Z,3.40
2018-07-25T13:34:06.894Z,3.60
2018-07-25T13:35:07.148Z,3.40
2018-07-25T13:36:07.006Z,3.60
2018-07-25T13:37:06.683Z,3.40
2018-07-25T13:38:07.244Z,3.60
2018-07-25T13:39:07.645Z,3.70
2018-07-25T13:40:13.888Z,3.80
2018-07-25T13:41:07.184Z,3.80
2018-07-25T13:42:07.390Z,3.80
2018-07-25T13:43:07.038Z,4.00
2018-07-25T13:44:07.517Z,3.60
2018-07-25T13:45:09.084Z,3.90
2018-07-25T13:46:21.881Z,3.90
2018-07-25T13:47:07.211Z,3.70
2018-07-25T13:48:07.826Z,3.30
2018-07-25T13:49:07.165Z,3.70
2018-07-25T13:50:07.700Z,3.50
2018-07-25T13:51:07.193Z,3.70
2018-07-25T13:53:44.549Z,3.90